Time;durP1;ratioP1;P1;durP2;ratioP2;P2;SDS_P1;SDS_P2;PMS_P1;PMS_P2;Temp;Humidity;BMP_temperature;BMP_pressure;BME280_temperature;BME280_humidity;BME280_pressure;Samples;Min_cycle;Max_cycle;Signal;HPM_P1;HPM_P2
2023/07/24 00:00:56;;;;;;;;;;;;;;;17.27;100.00;100385.84;5026066;28;1190;-81
2023/07/24 00:03:21;;;;;;;;;;;;;;;17.28;100.00;100386.63;5012572;28;1339;-82
2023/07/24 00:05:46;;;;;;;;;;;;;;;17.25;100.00;100377.31;5030191;28;1122;-81
2023/07/24 00:08:11;;;;;;;;;;;;;;;17.25;100.00;100378.13;5030473;28;1394;-82
2023/07/24 00:10:36;;;;;;;;;;;;;;;17.26;100.00;100378.94;5028388;28;1174;-82
2023/07/24 00:13:03;;;;;;;;;;;;;;;17.27;100.00;100380.59;4978190;28;1086801;-81
2023/07/24 00:15:28;;;;;;;;;;;;;;;17.27;100.00;100383.22;5030796;28;2021;-81
2023/07/24 00:17:53;;;;;;;;;;;;;;;17.28;100.00;100387.47;5030451;28;1197;-82
2023/07/24 00:20:18;;;;;;;;;;;;;;;17.27;100.00;100391.06;5022512;28;1594;-82
2023/07/24 00:22:43;;;;;;;;;;;;;;;17.28;100.00;100376.97;5012988;28;1261;-81
2023/07/24 00:25:09;;;;;;;;;;;;;;;17.29;100.00;100373.34;5029080;28;1504;-82
2023/07/24 00:27:34;;;;;;;;;;;;;;;17.30;100.00;100369.72;5028105;28;1161;-82
2023/07/24 00:29:59;;;;;;;;;;;;;;;17.29;100.00;100368.09;5024029;28;1154;-81
2023/07/24 00:32:24;;;;;;;;;;;;;;;17.28;100.00;100360.44;5027797;28;1185;-81
2023/07/24 00:34:49;;;;;;;;;;;;;;;17.29;100.00;100360.25;5011958;28;1886;-81
2023/07/24 00:37:15;;;;;;;;;;;;;;;17.29;100.00;100356.81;5029392;28;1352;-81
2023/07/24 00:39:40;;;;;;;;;;;;;;;17.30;100.00;100333.03;5009729;28;1255;-80
2023/07/24 00:42:06;;;;;;;;;;;;;;;17.30;100.00;100338.28;5022239;28;1344;-81
2023/07/24 00:44:31;;;;;;;;;;;;;;;17.30;100.00;100335.66;5022194;28;1141;-83
2023/07/24 00:46:56;;;;;;;;;;;;;;;17.30;100.00;100325.16;5015258;28;1221;-82
2023/07/24 00:49:22;;;;;;;;;;;;;;;17.31;100.00;100333.84;5029527;28;1075;-82
2023/07/24 00:51:47;;;;;;;;;;;;;;;17.31;100.00;100329.41;5017568;28;1077;-81
2023/07/24 00:54:16;;;;;;;;;;;;;;;17.31;100.00;100318.94;5026418;28;1898;-81
2023/07/24 00:56:41;;;;;;;;;;;;;;;17.30;100.00;100312.06;5024039;28;968;-81
2023/07/24 00:59:07;;;;;;;;;;;;;;;17.29;100.00;100320.94;5025070;28;1071;-82
2023/07/24 01:01:32;;;;;;;;;;;;;;;17.28;100.00;100323.75;5027232;28;1190;-81
2023/07/24 01:03:58;;;;;;;;;;;;;;;17.27;100.00;100322.94;5024031;28;1284;-82
2023/07/24 01:06:23;;;;;;;;;;;;;;;17.27;100.00;100312.44;5014253;28;1142;-82
2023/07/24 01:08:48;;;;;;;;;;;;;;;17.28;100.00;100313.25;5026295;28;1208;-82
2023/07/24 01:11:17;;;;;;;;;;;;;;;17.26;100.00;100310.78;5019162;28;1557;-82
2023/07/24 01:13:46;;;;;;;;;;;;;;;17.25;100.00;100314.41;5012910;28;1922;-81
2023/07/24 01:16:18;;;;;;;;;;;;;;;17.25;100.00;100303.94;5025885;28;1213;-82
2023/07/24 01:18:44;;;;;;;;;;;;;;;17.25;100.00;100309.16;5030521;28;1292;-83
2023/07/24 01:21:11;;;;;;;;;;;;;;;17.25;100.00;100303.94;5007014;28;1360;-81
2023/07/24 01:23:55;;;;;;;;;;;;;;;17.25;100.00;100304.72;5021415;28;1097;-81
2023/07/24 01:26:23;;;;;;;;;;;;;;;17.26;100.00;100300.31;5033466;28;1419;-82
2023/07/24 01:28:48;;;;;;;;;;;;;;;17.27;100.00;100301.97;5025931;28;1162;-82
2023/07/24 01:31:14;;;;;;;;;;;;;;;17.26;100.00;100297.69;5029449;28;1149;-83
2023/07/24 01:33:39;;;;;;;;;;;;;;;17.26;100.00;100300.31;5027585;28;1965;-81
2023/07/24 01:36:05;;;;;;;;;;;;;;;17.26;100.00;100300.31;5012907;28;1193;-81
2023/07/24 01:38:34;;;;;;;;;;;;;;;17.24;100.00;100278.72;5008673;28;1416;-81
2023/07/24 01:41:00;;;;;;;;;;;;;;;17.28;100.00;100287.03;5009471;28;1379;-82
2023/07/24 01:43:27;;;;;;;;;;;;;;;17.27;100.00;100281.00;5030094;28;1074;-81
2023/07/24 01:45:52;;;;;;;;;;;;;;;17.28;100.00;100282.59;5026274;28;1095;-83
2023/07/24 01:48:17;;;;;;;;;;;;;;;17.29;100.00;100273.75;5025011;28;1156;-81
2023/07/24 01:50:42;;;;;;;;;;;;;;;17.28;100.00;100277.38;5049447;28;1150;-81
2023/07/24 01:53:08;;;;;;;;;;;;;;;17.27;100.00;100274.94;5023525;28;1338;-82
2023/07/24 01:55:33;;;;;;;;;;;;;;;17.25;100.00;100272.47;5013159;28;1898;-81
2023/07/24 01:57:58;;;;;;;;;;;;;;;17.26;100.00;100274.09;5027226;28;1047;-82
2023/07/24 02:00:23;;;;;;;;;;;;;;;17.28;100.00;100272.13;5027358;28;1088;-82
2023/07/24 02:02:48;;;;;;;;;;;;;;;17.27;100.00;100264.44;5026569;28;1214;-82
2023/07/24 02:05:14;;;;;;;;;;;;;;;17.27;100.00;100261.84;5010356;28;1477;-81
2023/07/24 02:07:39;;;;;;;;;;;;;;;17.27;100.00;100253.97;5004918;28;1319;-82
2023/07/24 02:10:04;;;;;;;;;;;;;;;17.26;100.00;100258.38;5024929;28;1237;-82
2023/07/24 02:12:29;;;;;;;;;;;;;;;17.26;100.00;100258.38;5025577;28;1207;-81
2023/07/24 02:14:55;;;;;;;;;;;;;;;17.30;100.00;100259.63;5029771;28;1983;-82
2023/07/24 02:17:20;;;;;;;;;;;;;;;17.31;100.00;100261.25;5027048;28;1061;-82
2023/07/24 02:19:45;;;;;;;;;;;;;;;17.30;100.00;100249.16;5025442;28;1272;-82
2023/07/24 02:22:11;;;;;;;;;;;;;;;17.31;100.00;100255.22;5008117;28;1226;-82
2023/07/24 02:24:36;;;;;;;;;;;;;;;17.31;100.00;100250.78;5023045;28;1181;-82
2023/07/24 02:27:01;;;;;;;;;;;;;;;17.31;100.00;100245.53;5007499;28;1228;-81
2023/07/24 02:29:27;;;;;;;;;;;;;;;17.32;100.00;100241.94;5008120;28;1219;-81
2023/07/24 02:31:53;;;;;;;;;;;;;;;17.32;100.00;100249.81;5029970;28;1170;-82
2023/07/24 02:34:18;;;;;;;;;;;;;;;17.34;100.00;100245.19;5029065;28;1898;-82
2023/07/24 02:36:43;;;;;;;;;;;;;;;17.33;100.00;100237.50;5010637;28;1287;-82
2023/07/24 02:39:09;;;;;;;;;;;;;;;17.33;100.00;100235.69;5028957;28;1314;-82
2023/07/24 02:41:34;;;;;;;;;;;;;;;17.32;100.00;100238.47;5028198;28;1282;-83
2023/07/24 02:43:59;;;;;;;;;;;;;;;17.31;100.00;100240.28;5035981;28;1178;-83
2023/07/24 02:46:24;;;;;;;;;;;;;;;17.30;100.00;100243.91;5032716;28;1323;-82
2023/07/24 02:48:50;;;;;;;;;;;;;;;17.29;100.00;100242.28;5026579;28;1193;-83
2023/07/24 02:51:15;;;;;;;;;;;;;;;17.30;100.00;100249.16;5031017;28;994;-83
2023/07/24 02:53:40;;;;;;;;;;;;;;;17.30;100.00;100238.66;5031096;28;1967;-85
2023/07/24 02:56:05;;;;;;;;;;;;;;;17.30;100.00;100230.00;5013840;28;1370;-85
2023/07/24 02:58:31;;;;;;;;;;;;;;;17.28;100.00;100234.63;5013276;28;1187;-84
2023/07/24 03:01:06;;;;;;;;;;;;;;;17.26;100.00;100219.06;5014568;28;1484;-83
2023/07/24 03:03:32;;;;;;;;;;;;;;;17.28;100.00;100232.00;5025051;28;1397;-83
2023/07/24 03:05:57;;;;;;;;;;;;;;;17.27;100.00;100228.56;5027464;28;1412;-83
2023/07/24 03:08:22;;;;;;;;;;;;;;;17.28;100.00;100224.13;5029564;28;1080;-83
2023/07/24 03:10:47;;;;;;;;;;;;;;;17.29;100.00;100218.69;5026625;28;1082;-82
2023/07/24 03:13:12;;;;;;;;;;;;;;;17.29;100.00;100212.66;5033068;28;1170;-83
2023/07/24 03:15:40;;;;;;;;;;;;;;;17.25;100.00;100210.38;5026743;28;1894;-85
2023/07/24 03:18:06;;;;;;;;;;;;;;;17.25;100.00;100209.56;5026780;28;1381;-82
2023/07/24 03:20:31;;;;;;;;;;;;;;;17.24;100.00;100229.72;5025047;28;1126;-82
2023/07/24 03:22:56;;;;;;;;;;;;;;;17.24;100.00;100223.69;5030979;28;1406;-89
2023/07/24 03:25:22;;;;;;;;;;;;;;;17.21;100.00;100218.81;5016298;28;1410;-84
2023/07/24 03:27:47;;;;;;;;;;;;;;;17.19;100.00;100194.59;5012776;28;1212;-84
2023/07/24 03:30:13;;;;;;;;;;;;;;;17.18;100.00;100187.72;5013163;28;1419;-85
2023/07/24 03:32:38;;;;;;;;;;;;;;;17.17;100.00;100186.91;5026225;28;1508;-85
2023/07/24 03:35:04;;;;;;;;;;;;;;;17.17;100.00;100197.41;5034908;28;1894;-82
2023/07/24 03:37:30;;;;;;;;;;;;;;;17.16;100.00;100187.91;5013795;28;1359;-82
2023/07/24 03:39:55;;;;;;;;;;;;;;;17.13;100.00;100205.81;5031592;28;1187;-82
2023/07/24 03:42:28;;;;;;;;;;;;;;;17.11;100.00;100207.81;5011965;28;1303;-83
2023/07/24 03:44:53;;;;;;;;;;;;;;;17.08;100.00;100213.41;5030064;28;1276;-82
2023/07/24 03:47:19;;;;;;;;;;;;;;;17.09;100.00;100209.78;5028111;28;1004;-82
2023/07/24 03:49:44;;;;;;;;;;;;;;;17.08;100.00;100208.16;5032318;28;1372;-83
2023/07/24 03:52:09;;;;;;;;;;;;;;;17.07;100.00;100206.53;5022089;28;1381;-85
2023/07/24 03:54:34;;;;;;;;;;;;;;;17.07;100.00;100207.34;5030568;28;1965;-83
2023/07/24 03:57:02;;;;;;;;;;;;;;;17.05;100.00;100213.78;5026578;28;1086;-82
2023/07/24 03:59:27;;;;;;;;;;;;;;;17.04;100.00;100202.47;5016483;28;1287;-82
2023/07/24 04:01:52;;;;;;;;;;;;;;;17.02;100.00;100203.66;5025736;28;1274;-82
2023/07/24 04:04:18;;;;;;;;;;;;;;;17.03;100.00;100197.41;5027813;28;1431;-82
2023/07/24 04:06:43;;;;;;;;;;;;;;;17.00;100.00;100201.22;5011280;28;1487;-82
2023/07/24 04:09:08;;;;;;;;;;;;;;;17.01;100.00;100202.03;5024822;28;1717;-83
2023/07/24 04:11:33;;;;;;;;;;;;;;;16.99;100.00;100200.41;5031184;28;1126;-85
2023/07/24 04:13:58;;;;;;;;;;;;;;;16.97;100.00;100197.16;5012106;28;1902;-84
2023/07/24 04:16:24;;;;;;;;;;;;;;;16.97;100.00;100202.41;5025964;28;1210;-83
2023/07/24 04:18:49;;;;;;;;;;;;;;;16.96;100.00;100192.09;5026356;28;1185;-83
2023/07/24 04:21:14;;;;;;;;;;;;;;;16.94;100.00;100188.84;5013401;28;1276;-82
2023/07/24 04:23:40;;;;;;;;;;;;;;;16.93;100.00;100195.91;5010741;28;1441;-83
2023/07/24 04:26:05;;;;;;;;;;;;;;;16.94;100.00;100200.13;5031984;28;1146;-82
2023/07/24 04:28:30;;;;;;;;;;;;;;;16.93;100.00;100206.38;5024734;28;1186;-83
2023/07/24 04:30:59;;;;;;;;;;;;;;;16.91;100.00;100207.53;5033110;28;1194;-82
2023/07/24 04:33:27;;;;;;;;;;;;;;;16.87;100.00;100196.63;5033671;28;1340;-83
2023/07/24 04:35:52;;;;;;;;;;;;;;;16.86;100.00;100210.72;5012394;28;1940;-82
2023/07/24 04:38:17;;;;;;;;;;;;;;;16.85;100.00;100216.13;5035297;28;1150;-82
2023/07/24 04:40:45;;;;;;;;;;;;;;;16.84;100.00;100212.69;5008182;28;2348;-82
2023/07/24 04:43:10;;;;;;;;;;;;;;;16.83;100.00;100211.06;5027561;28;1270;-82
2023/07/24 04:45:36;;;;;;;;;;;;;;;16.83;100.00;100221.53;5012434;28;1232;-83
2023/07/24 04:48:01;;;;;;;;;;;;;;;16.82;100.00;100219.91;5027365;28;1119;-83
2023/07/24 04:50:26;;;;;;;;;;;;;;;16.79;100.00;100219.47;5014499;28;1267;-82
2023/07/24 04:52:52;;;;;;;;;;;;;;;16.76;100.00;100225.88;5025406;28;1135;-82
2023/07/24 04:55:17;;;;;;;;;;;;;;;16.74;100.00;100220.00;5013384;28;2041;-82
2023/07/24 04:57:42;;;;;;;;;;;;;;;16.74;100.00;100217.38;5020215;28;1241;-82
2023/07/24 05:00:08;;;;;;;;;;;;;;;16.74;100.00;100217.38;5028088;28;1194;-82
2023/07/24 05:02:33;;;;;;;;;;;;;;;16.74;100.00;100222.59;5029782;28;1145;-82
2023/07/24 05:04:58;;;;;;;;;;;;;;;16.71;100.00;100213.31;5026353;28;1126;-82
2023/07/24 05:07:23;;;;;;;;;;;;;;;16.74;100.00;100217.38;5010896;28;1537;-82
2023/07/24 05:09:49;;;;;;;;;;;;;;;16.74;100.00;100222.59;5028434;28;1181;-82
2023/07/24 05:12:14;;;;;;;;;;;;;;;16.71;100.00;100221.19;5025553;28;1201;-83
2023/07/24 05:14:39;;;;;;;;;;;;;;;16.70;100.00;100221.34;5006836;28;1905;-83
2023/07/24 05:17:04;;;;;;;;;;;;;;;16.69;100.00;100222.34;5021473;28;1318;-83
2023/07/24 05:19:30;;;;;;;;;;;;;;;16.69;100.00;100222.34;5025497;28;1380;-82
2023/07/24 05:21:55;;;;;;;;;;;;;;;16.70;100.00;100231.81;5026539;28;1108;-82
2023/07/24 05:24:20;;;;;;;;;;;;;;;16.69;100.00;100225.75;5025571;28;1123;-83
2023/07/24 05:26:45;;;;;;;;;;;;;;;16.71;100.00;100238.69;5022757;28;1310;-82
2023/07/24 05:29:10;;;;;;;;;;;;;;;16.72;100.00;100235.09;5031024;28;1356;-85
2023/07/24 05:31:36;;;;;;;;;;;;;;;16.75;100.00;100224.25;5024440;28;1453;-83
2023/07/24 05:34:01;;;;;;;;;;;;;;;16.76;100.00;100233.75;5022829;28;1949;-82
2023/07/24 05:36:26;;;;;;;;;;;;;;;16.77;100.00;100237.97;5019156;28;1620;-84
2023/07/24 05:38:52;;;;;;;;;;;;;;;16.79;100.00;100229.94;5008326;28;1364;-83
2023/07/24 05:41:17;;;;;;;;;;;;;;;16.78;100.00;100244.03;5008194;28;1460;-82
2023/07/24 05:43:43;;;;;;;;;;;;;;;16.80;100.00;100232.38;5009423;28;1140;-81
2023/07/24 05:46:08;;;;;;;;;;;;;;;16.80;100.00;100232.38;5026918;28;1123;-83
2023/07/24 05:48:33;;;;;;;;;;;;;;;16.80;100.00;100232.38;5012356;28;1251;-81
2023/07/24 05:50:58;;;;;;;;;;;;;;;16.79;100.00;100243.84;5013391;28;1389;-81
2023/07/24 05:53:23;;;;;;;;;;;;;;;16.74;100.00;100243.56;5023087;28;1102;-82
2023/07/24 05:55:55;;;;;;;;;;;;;;;16.72;100.00;100241.13;5021404;28;1894;-81
2023/07/24 05:58:21;;;;;;;;;;;;;;;16.69;100.00;100235.44;5024537;28;1146;-81
2023/07/24 06:00:46;;;;;;;;;;;;;;;16.71;100.00;100238.69;5008083;28;1288;-81
2023/07/24 06:03:11;;;;;;;;;;;;;;;16.72;100.00;100240.31;5025077;28;1191;-82
2023/07/24 06:05:36;;;;;;;;;;;;;;;16.72;100.00;100232.47;5024790;28;1309;-81
2023/07/24 06:08:01;;;;;;;;;;;;;;;16.72;100.00;100237.69;5022508;28;1305;-81
2023/07/24 06:10:27;;;;;;;;;;;;;;;16.73;100.00;100231.47;5028331;28;1126;-81
2023/07/24 06:12:52;;;;;;;;;;;;;;;16.75;100.00;100241.78;5028696;28;1166;-82
2023/07/24 06:15:17;;;;;;;;;;;;;;;16.75;100.00;100239.16;5018295;28;1975;-83
2023/07/24 06:17:42;;;;;;;;;;;;;;;16.75;100.00;100242.59;5027275;28;1348;-82
2023/07/24 06:20:08;;;;;;;;;;;;;;;16.76;100.00;100246.03;5009469;28;1611;-83
2023/07/24 06:22:33;;;;;;;;;;;;;;;16.75;100.00;100249.63;5026186;28;1128;-84
2023/07/24 06:24:58;;;;;;;;;;;;;;;16.72;100.00;100251.59;5022755;28;1254;-82
2023/07/24 06:27:23;;;;;;;;;;;;;;;16.71;100.00;100249.16;5025428;28;2241;-83
2023/07/24 06:29:49;;;;;;;;;;;;;;;16.70;100.00;100252.75;5026912;28;1100;-81
2023/07/24 06:32:14;;;;;;;;;;;;;;;16.69;100.00;100251.94;5018571;28;1475;-83
2023/07/24 06:34:39;;;;;;;;;;;;;;;16.70;100.00;100258.00;5023003;28;1957;-83
2023/07/24 06:37:04;;;;;;;;;;;;;;;16.72;100.00;100245.56;5007180;28;2480;-83
2023/07/24 06:39:33;;;;;;;;;;;;;;;16.75;100.00;100247.03;5023592;28;1113;-82
2023/07/24 06:41:58;;;;;;;;;;;;;;;16.79;100.00;100246.47;5009859;28;1290;-82
2023/07/24 06:44:23;;;;;;;;;;;;;;;16.83;100.00;100262.63;5020391;28;1444;-82
2023/07/24 06:46:48;;;;;;;;;;;;;;;16.88;100.00;100260.28;5011539;28;1416;-81
2023/07/24 06:49:13;;;;;;;;;;;;;;;16.92;100.00;100270.25;5027017;28;1045;-83
2023/07/24 06:51:39;;;;;;;;;;;;;;;16.94;100.00;100259.56;5009349;28;1244;-82
2023/07/24 06:54:04;;;;;;;;;;;;;;;16.92;100.00;100262.38;5021444;28;1886;-82
2023/07/24 06:56:30;;;;;;;;;;;;;;;16.91;100.00;100260.72;5017174;28;1355;-82
2023/07/24 06:59:17;;;;;;;;;;;;;;;16.95;100.00;100267.25;5029989;28;1090;-82
2023/07/24 07:01:42;;;;;;;;;;;;;;;16.99;100.00;100263.28;5023214;28;1192;-83
2023/07/24 07:04:16;;;;;;;;;;;;;;;17.03;100.00;100268.13;5030408;28;1095;-82
2023/07/24 07:06:41;;;;;;;;;;;;;;;17.06;100.00;100262.56;5007889;28;1391;-83
2023/07/24 07:09:06;;;;;;;;;;;;;;;17.05;100.00;100266.19;5010736;28;1151;-82
2023/07/24 07:11:32;;;;;;;;;;;;;;;17.09;100.00;100262.19;5029321;28;1095;-82
2023/07/24 07:13:57;;;;;;;;;;;;;;;17.15;100.00;100264.09;5025475;28;1902;-82
2023/07/24 07:16:22;;;;;;;;;;;;;;;17.17;100.00;100265.53;5003759;28;1373;-82
2023/07/24 07:18:47;;;;;;;;;;;;;;;17.20;100.00;100261.72;5025897;28;1439;-82
2023/07/24 07:21:12;;;;;;;;;;;;;;;17.20;100.00;100264.34;5030968;28;1123;-82
2023/07/24 07:23:38;;;;;;;;;;;;;;;17.17;100.00;100270.78;5025095;28;1093;-82
2023/07/24 07:26:03;;;;;;;;;;;;;;;17.18;100.00;100266.34;5023988;28;1295;-81
2023/07/24 07:28:28;;;;;;;;;;;;;;;17.19;100.00;100267.97;5029123;28;1131;-82
2023/07/24 07:30:53;;;;;;;;;;;;;;;17.23;100.00;100253.50;5031651;28;1209;-82
2023/07/24 07:33:21;;;;;;;;;;;;;;;17.25;100.00;100254.13;5027253;28;1205;-82
2023/07/24 07:35:46;;;;;;;;;;;;;;;17.30;100.00;100257.03;5022116;28;1890;-82
2023/07/24 07:38:12;;;;;;;;;;;;;;;17.37;100.00;100257.09;5026410;28;1146;-81
2023/07/24 07:40:39;;;;;;;;;;;;;;;17.41;100.00;100253.94;5028093;28;1067;-82
2023/07/24 07:43:04;;;;;;;;;;;;;;;17.45;100.00;100251.75;5007041;28;1676;-81
2023/07/24 07:45:29;;;;;;;;;;;;;;;17.44;100.00;100245.72;5027206;28;1078;-82
2023/07/24 07:47:54;;;;;;;;;;;;;;;17.44;100.00;100242.28;5009065;28;1220;-81
2023/07/24 07:50:20;;;;;;;;;;;;;;;17.43;100.00;100249.34;5038667;28;1444;-82
2023/07/24 07:52:45;;;;;;;;;;;;;;;17.44;100.00;100250.97;5023348;28;1213;-81
2023/07/24 07:55:11;;;;;;;;;;;;;;;17.46;100.00;100254.19;5030256;28;1967;-82
2023/07/24 07:57:36;;;;;;;;;;;;;;;17.48;100.00;100241.72;5035322;28;1194;-82
2023/07/24 08:00:02;;;;;;;;;;;;;;;17.53;100.00;100249.03;5031937;28;1050;-81
2023/07/24 08:02:27;;;;;;;;;;;;;;;17.55;100.00;100246.22;5013756;28;1300;-82
2023/07/24 08:05:08;;;;;;;;;;;;;;;17.57;100.00;100244.22;5012527;28;1196;-82
2023/07/24 08:07:33;;;;;;;;;;;;;;;17.60;100.00;100243.84;5029259;28;2172;-83
2023/07/24 08:09:59;;;;;;;;;;;;;;;17.65;100.00;100241.50;5008871;28;1245;-80
2023/07/24 08:12:24;;;;;;;;;;;;;;;17.65;100.00;100246.72;5028980;28;1204;-82
2023/07/24 08:14:49;;;;;;;;;;;;;;;17.76;100.00;100248.91;5026961;28;1965;-82
2023/07/24 08:17:15;;;;;;;;;;;;;;;17.86;100.00;100251.22;5010889;28;1320;-81
2023/07/24 08:19:40;;;;;;;;;;;;;;;17.92;100.00;100256.53;5033281;28;1282;-83
2023/07/24 08:22:05;;;;;;;;;;;;;;;17.98;100.00;100258.41;5025143;28;1347;-81
2023/07/24 08:24:33;;;;;;;;;;;;;;;18.07;100.00;100258.31;5025203;28;1150;-82
2023/07/24 08:26:58;;;;;;;;;;;;;;;18.10;100.00;100263.16;5029811;28;1385;-82
2023/07/24 08:29:23;;;;;;;;;;;;;;;18.15;99.64;100263.41;5024491;28;1103;-81
2023/07/24 08:31:49;;;;;;;;;;;;;;;18.17;100.00;100261.41;5009126;28;1285;-82
2023/07/24 08:34:14;;;;;;;;;;;;;;;18.14;99.40;100264.41;5028775;28;1886;-81
2023/07/24 08:36:39;;;;;;;;;;;;;;;18.12;99.30;100250.66;5023751;28;1210;-82
2023/07/24 08:39:04;;;;;;;;;;;;;;;18.12;98.91;100253.28;5013056;28;1189;-81
2023/07/24 08:41:32;;;;;;;;;;;;;;;18.15;98.62;100237.16;5022829;28;1153;-81
2023/07/24 08:43:57;;;;;;;;;;;;;;;18.20;98.91;100242.66;5030084;28;1165;-82
2023/07/24 08:46:23;;;;;;;;;;;;;;;18.31;98.61;100247.41;5001296;28;1363;-81
2023/07/24 08:48:48;;;;;;;;;;;;;;;18.43;98.54;100245.88;5007592;28;1480;-82
2023/07/24 08:51:15;;;;;;;;;;;;;;;18.55;98.25;100244.34;5022950;28;1254;-80
2023/07/24 08:53:41;;;;;;;;;;;;;;;18.67;97.68;100241.19;5028271;28;1162;-82
2023/07/24 08:56:09;;;;;;;;;;;;;;;18.73;96.92;100240.47;5023246;28;1898;-81
2023/07/24 08:58:34;;;;;;;;;;;;;;;18.73;95.78;100245.72;5015471;28;1189;-81
2023/07/24 09:01:00;;;;;;;;;;;;;;;18.77;96.46;100237.25;5029652;28;1221;-80
2023/07/24 09:03:26;;;;;;;;;;;;;;;18.79;96.21;100229.19;5037914;28;1290;-80
2023/07/24 09:05:51;;;;;;;;;;;;;;;18.75;94.77;100234.03;5032424;28;1009;-80
2023/07/24 09:08:17;;;;;;;;;;;;;;;18.72;94.77;100228.34;5016782;28;1330;-80
2023/07/24 09:10:42;;;;;;;;;;;;;;;18.73;93.44;100222.88;5031960;28;1241;-80
2023/07/24 09:13:07;;;;;;;;;;;;;;;18.75;93.60;100217.44;5023302;28;1232;-80
2023/07/24 09:15:42;;;;;;;;;;;;;;;18.77;93.77;100204.94;5023321;28;1898;-81
2023/07/24 09:18:09;;;;;;;;;;;;;;;18.78;93.77;100206.53;5013689;28;1231;-79
2023/07/24 09:20:38;;;;;;;;;;;;;;;18.77;93.07;100204.94;5024778;28;1336;-80
2023/07/24 09:23:03;;;;;;;;;;;;;;;18.78;93.51;100206.53;5023073;28;1356;-80
2023/07/24 09:25:32;;;;;;;;;;;;;;;18.78;92.22;100206.53;5030286;28;1167;-80
2023/07/24 09:28:00;;;;;;;;;;;;;;;18.82;92.94;100213.03;5022875;28;1152;-80
2023/07/24 09:30:25;;;;;;;;;;;;;;;18.82;92.06;100207.78;5025622;28;1138;-80
2023/07/24 09:32:53;;;;;;;;;;;;;;;18.83;92.10;100196.25;5025062;28;1156;-81
2023/07/24 09:35:19;;;;;;;;;;;;;;;18.85;91.39;100196.88;5023807;28;1902;-79
2023/07/24 09:37:45;;;;;;;;;;;;;;;18.87;91.38;100189.63;5022387;28;1190;-80
2023/07/24 09:40:11;;;;;;;;;;;;;;;18.88;91.14;100201.75;5027570;28;1368;-80
2023/07/24 09:42:37;;;;;;;;;;;;;;;18.84;91.59;100211.84;5027648;28;1066;-79
2023/07/24 09:45:03;;;;;;;;;;;;;;;18.83;91.41;100204.16;5021222;28;1221;-81
2023/07/24 09:47:28;;;;;;;;;;;;;;;18.76;90.71;100185.72;5027691;28;1138;-80
2023/07/24 09:49:53;;;;;;;;;;;;;;;18.77;91.31;100192.59;5032699;28;1114;-79
2023/07/24 09:52:19;;;;;;;;;;;;;;;18.78;91.32;100182.91;5042055;28;1507;-80
2023/07/24 09:54:50;;;;;;;;;;;;;;;18.91;91.33;100200.53;5008412;28;1922;-81
2023/07/24 09:57:16;;;;;;;;;;;;;;;18.97;91.05;100190.06;5027611;28;1273;-80
2023/07/24 09:59:41;;;;;;;;;;;;;;;18.97;90.75;100190.06;5030825;28;1157;-80
2023/07/24 10:02:11;;;;;;;;;;;;;;;18.95;90.34;100197.34;5017412;28;2060;-82
2023/07/24 10:04:37;;;;;;;;;;;;;;;18.94;90.34;100189.66;5007460;28;1585;-82
2023/07/24 10:07:03;;;;;;;;;;;;;;;18.89;90.39;100181.53;5021448;28;1924;-82
2023/07/24 10:09:29;;;;;;;;;;;;;;;18.86;90.65;100187.97;5029413;28;1196;-81
2023/07/24 10:11:54;;;;;;;;;;;;;;;18.86;90.34;100172.22;5029083;28;1140;-81
2023/07/24 10:14:20;;;;;;;;;;;;;;;18.84;90.77;100179.50;5028988;28;1910;-82
2023/07/24 10:16:45;;;;;;;;;;;;;;;18.83;90.58;100180.50;5030287;28;1354;-82
2023/07/24 10:19:15;;;;;;;;;;;;;;;18.82;90.03;100171.00;5023647;28;1129;-82
2023/07/24 10:21:44;;;;;;;;;;;;;;;18.77;90.00;100157.63;5029159;28;1262;-82
2023/07/24 10:24:09;;;;;;;;;;;;;;;18.76;89.95;100158.66;5021035;28;1142;-82
2023/07/24 10:26:34;;;;;;;;;;;;;;;18.75;90.00;100164.88;5008978;28;1172;-81
2023/07/24 10:29:00;;;;;;;;;;;;;;;18.84;89.21;100168.97;5023740;28;1182;-82
2023/07/24 10:31:26;;;;;;;;;;;;;;;18.81;88.42;100164.94;5013735;28;1292;-82
2023/07/24 10:33:52;;;;;;;;;;;;;;;18.68;88.81;100174.56;5030236;28;1201;-81
2023/07/24 10:36:19;;;;;;;;;;;;;;;18.68;89.32;100169.31;5024680;28;1914;-81
2023/07/24 10:38:45;;;;;;;;;;;;;;;18.72;89.17;100170.53;5008512;28;1547;-82
2023/07/24 10:41:11;;;;;;;;;;;;;;;18.76;89.05;100172.59;5025293;28;985;-82
2023/07/24 10:43:40;;;;;;;;;;;;;;;18.79;89.07;100171.38;5033397;28;1138;-82
2023/07/24 10:46:05;;;;;;;;;;;;;;;18.79;89.26;100184.50;5022084;28;1113;-82
2023/07/24 10:48:30;;;;;;;;;;;;;;;18.81;88.80;100190.41;5003010;28;1479;-81
2023/07/24 10:50:55;;;;;;;;;;;;;;;18.83;89.41;100183.13;5026486;28;1424;-82
2023/07/24 10:53:21;;;;;;;;;;;;;;;18.84;89.18;100184.75;5045762;28;1227;-81
2023/07/24 10:55:47;;;;;;;;;;;;;;;18.92;89.27;100192.44;5028535;28;1906;-82
2023/07/24 10:58:13;;;;;;;;;;;;;;;19.00;89.03;100194.94;5017159;28;1288;-81
2023/07/24 11:00:39;;;;;;;;;;;;;;;19.05;88.67;100208.31;5026266;28;1181;-82
2023/07/24 11:03:05;;;;;;;;;;;;;;;19.08;87.82;100197.38;5033378;28;1208;-82
2023/07/24 11:05:31;;;;;;;;;;;;;;;19.09;87.50;100206.09;5024595;28;1280;-82
2023/07/24 11:07:56;;;;;;;;;;;;;;;19.06;87.39;100209.91;5032258;28;1193;-82
2023/07/24 11:10:22;;;;;;;;;;;;;;;19.05;86.28;100210.94;5014941;28;1369;-82
2023/07/24 11:12:47;;;;;;;;;;;;;;;19.03;86.11;100220.81;5010754;28;1201;-82
2023/07/24 11:15:13;;;;;;;;;;;;;;;18.98;86.01;100212.72;5009185;28;1987;-81
2023/07/24 11:17:42;;;;;;;;;;;;;;;18.96;85.66;100214.72;5031327;28;1527;-82
2023/07/24 11:20:09;;;;;;;;;;;;;;;18.97;85.90;100195.31;5010370;28;1276;-82
2023/07/24 11:22:34;;;;;;;;;;;;;;;18.94;85.68;100200.97;5029793;28;1149;-82
2023/07/24 11:25:01;;;;;;;;;;;;;;;18.97;85.46;100211.06;5007992;28;1349;-82
2023/07/24 11:27:26;;;;;;;;;;;;;;;19.03;85.41;100215.56;5025286;28;1032;-82
2023/07/24 11:29:51;;;;;;;;;;;;;;;19.13;85.16;100220.47;5030522;28;1192;-82
2023/07/24 11:32:20;;;;;;;;;;;;;;;19.33;85.94;100220.56;5011158;28;1444;-81
2023/07/24 11:34:46;;;;;;;;;;;;;;;19.56;85.16;100213.13;5022367;28;1964;-82
2023/07/24 11:37:33;;;;;;;;;;;;;;;19.66;84.75;100214.59;5026259;28;1753;-82
2023/07/24 11:40:04;;;;;;;;;;;;;;;19.68;84.48;100212.59;5025904;28;1203;-82
2023/07/24 11:42:29;;;;;;;;;;;;;;;19.69;84.07;100204.50;5008338;28;1314;-82
2023/07/24 11:44:55;;;;;;;;;;;;;;;19.68;83.92;100212.59;5014214;28;1216;-82
2023/07/24 11:47:20;;;;;;;;;;;;;;;19.72;83.00;100203.25;5036455;28;1244;-82
2023/07/24 11:49:56;;;;;;;;;;;;;;;19.83;82.75;100215.84;5029009;28;1220;-82
2023/07/24 11:52:21;;;;;;;;;;;;;;;20.05;82.44;100209.38;5032597;28;1269;-81
2023/07/24 11:54:55;;;;;;;;;;;;;;;20.24;82.27;100201.69;5027516;28;1897;-82
2023/07/24 11:57:20;;;;;;;;;;;;;;;20.35;80.86;100203.69;5007252;28;1440;-81
2023/07/24 11:59:46;;;;;;;;;;;;;;;20.42;81.16;100204.53;5025060;28;1308;-82
2023/07/24 12:02:11;;;;;;;;;;;;;;;20.44;80.25;100213.03;5025015;28;1483;-82
2023/07/24 12:04:37;;;;;;;;;;;;;;;20.48;80.66;100209.00;5012623;28;1500;-82
2023/07/24 12:07:07;;;;;;;;;;;;;;;20.47;80.30;100212.63;5009641;28;1139;-82
2023/07/24 12:09:32;;;;;;;;;;;;;;;20.45;80.36;100206.72;5028209;28;1295;-83
2023/07/24 12:11:58;;;;;;;;;;;;;;;20.36;79.15;100205.34;5005694;28;1437;-82
2023/07/24 12:14:23;;;;;;;;;;;;;;;20.29;79.78;100199.25;5031409;28;1898;-81
2023/07/24 12:16:48;;;;;;;;;;;;;;;20.22;80.01;100203.72;5021271;28;1251;-82
2023/07/24 12:19:13;;;;;;;;;;;;;;;20.19;80.51;100198.88;5028085;28;1272;-81
2023/07/24 12:21:39;;;;;;;;;;;;;;;20.19;81.10;100201.50;5030150;28;1232;-82
2023/07/24 12:24:04;;;;;;;;;;;;;;;20.22;82.79;100203.72;5025110;28;1378;-82
2023/07/24 12:26:51;;;;;;;;;;;;;;;20.26;83.03;100202.31;5024128;28;1458;-81
2023/07/24 12:29:16;;;;;;;;;;;;;;;20.27;80.71;100196.00;5009321;28;1321;-82
2023/07/24 12:31:42;;;;;;;;;;;;;;;20.12;81.39;100191.75;5031599;28;1285;-82
2023/07/24 12:34:07;;;;;;;;;;;;;;;20.12;81.93;100186.50;5011524;28;1893;-82